Bachir Chihani — 7TJA — position and weather

sailwx.info

Track history (hours):
 
Tides and Currents Weather Stations Pressure Air Temp Water Temp Dewpoint Dewpoint Depression Visibility Wind Speed Wind Dir Waves Ship Positions

Bachir Chihani

Last reported at 2016-Jul-29 05:30 UTC. Time now 2016-Jul-29 10:11 UTC.
Position N 37°20' E 024°14'.

Length 280 m; draft 11.1 m.

Type: Ship (hazmat cat D). MMSI: 605106010.

Date/timePositionNaut miles runAvg speedWind from/ knotsBaromVisibWave heightAir tempDewpointWater temp
2016-Jul-29 05:30N 37°20' E 024°14'1212.1
2016-Jul-29 04:33N 37°08' E 024°10'1212.4
2016-Jul-29 03:33N 36°57' E 024°06'1212.3
2016-Jul-29 02:34N 36°46' E 023°59'1313.1
2016-Jul-29 01:33N 36°36' E 023°48'1313.3
2016-Jul-29 00:33N 36°26' E 023°36'1312.8
2016-Jul-28 23:33N 36°17' E 023°25'1712.7
2016-Jul-28 22:12N 36°05' E 023°10'37513.1
2016-Jul-27 17:33N 36°22' E 015°26'1313.1
2016-Jul-27 16:33N 36°24' E 015°09'1313.0
2016-Jul-27 15:34N 36°25' E 014°54'1313.1
2016-Jul-27 14:33N 36°27' E 014°37'1313.2
2016-Jul-27 13:33N 36°28' E 014°21'1313.4
2016-Jul-27 12:33N 36°31' E 014°05'1413.9
2016-Jul-27 11:34N 36°33' E 013°48'1413.7
2016-Jul-27 10:33N 36°36' E 013°31'1413.9
2016-Jul-27 09:33N 36°38' E 013°14'1414.1
2016-Jul-27 08:33N 36°41' E 012°56'1413.6
2016-Jul-27 07:33N 36°43' E 012°40'1313.0
2016-Jul-27 06:33N 36°49' E 012°25'31113.0
2016-Jul-26 06:33N 37°15' E 005°57'1414.3
2016-Jul-26 05:33N 37°14' E 005°39'1414.2
2016-Jul-26 04:33N 37°13' E 005°21'1613.9
2016-Jul-26 03:23N 37°10' E 005°01'1214.3
2016-Jul-26 02:33N 37°09' E 004°46'1714.1
2016-Jul-26 01:19N 37°07' E 004°25'1113.7
2016-Jul-26 00:33N 37°06' E 004°12'1313.1
2016-Jul-25 23:33N 37°05' E 003°55'1813.7
2016-Jul-25 22:13N 37°03' E 003°32'1014.4
2016-Jul-25 21:33N 37°02' E 003°20'1414.3
2016-Jul-25 20:33N 37°01' E 003°02'1413.9
2016-Jul-25 19:33N 36°59' E 002°45'1413.8
2016-Jul-25 18:32N 36°55' E 002°28'1313.6
2016-Jul-25 17:33N 36°53' E 002°12'1313.3
2016-Jul-25 16:33N 36°50' E 001°56'1813.0
2016-Jul-25 15:12N 36°47' E 001°34'913.2
2016-Jul-25 14:33N 36°45' E 001°24'1313.0
2016-Jul-25 13:32N 36°43' E 001°07'1312.8
2016-Jul-25 12:33N 36°38' E 000°53'1313.1
2016-Jul-25 11:33N 36°31' E 000°39'1313.0
2016-Jul-25 10:33N 36°24' E 000°25'1313.2
2016-Jul-25 09:33N 36°17' E 000°11'  
2016-Jul-22 20:15N 35°49' W 000°16'0 0.0
2016-Jul-22 18:09N 35°49' W 000°16'1 1.4
2016-Jul-22 17:34N 35°50' W 000°16'3 2.5
2016-Jul-22 16:32N 35°52' W 000°15'9 6.2
2016-Jul-22 15:05N 35°58' W 000°07'710.5
2016-Jul-22 14:23N 36°03' W 000°00'1 1.6
2016-Jul-22 13:33N 36°02' W 000°00'2 1.8
2016-Jul-22 12:32N 36°00' W 000°01'2 1.8
2016-Jul-22 11:28N 35°60' E 000°01'1 1.3
2016-Jul-22 10:33N 36°01' W 000°00'14 3.4
2016-Jul-22 06:26N 36°14' E 000°06'8 3.9
2016-Jul-22 04:17N 36°18' E 000°15'7 4.0
2016-Jul-22 02:26N 36°22' E 000°23'1 1.4
2016-Jul-22 01:33N 36°22' E 000°21'5 5.0
2016-Jul-22 00:33N 36°20' E 000°16'5 4.9
2016-Jul-21 23:33N 36°17' E 000°11'5 4.8
2016-Jul-21 22:34N 36°14' E 000°07'5 4.7
2016-Jul-21 21:33N 36°10' E 000°03'5 4.5
2016-Jul-21 20:30N 36°06' E 000°01'4 4.2
2016-Jul-21 19:33N 36°02' W 000°02'4 3.7
2016-Jul-21 18:33N 35°59' W 000°04'0 0.4
2016-Jul-21 17:33N 35°59' W 000°05'0 0.1
2016-Jul-21 16:33N 35°59' W 000°05'0 0.3
2016-Jul-21 15:33N 35°59' W 000°04'0 0.5
2016-Jul-21 14:33N 35°59' W 000°04'1 0.5
2016-Jul-21 13:33N 35°59' W 000°04'5 5.2
2016-Jul-21 12:33N 36°05' W 000°04'5 5.2
2016-Jul-21 11:33N 36°10' W 000°03'6 5.6
2016-Jul-21 10:33N 36°13' E 000°02'6 5.5
2016-Jul-21 09:28N 36°16' E 000°09'5 5.3
2016-Jul-21 08:28N 36°19' E 000°14'4 4.8
2016-Jul-21 07:33N 36°21' E 000°19'5 4.7
2016-Jul-21 06:33N 36°23' E 000°24'9 4.3
2016-Jul-21 04:28N 36°28' E 000°34'2 2.5
2016-Jul-21 03:33N 36°27' E 000°31'5 5.4
2016-Jul-21 02:34N 36°24' E 000°26'5 5.4
2016-Jul-21 01:33N 36°21' E 000°20'5 5.1
2016-Jul-21 00:33N 36°18' E 000°15'5 5.2
2016-Jul-20 23:33N 36°16' E 000°09'5 4.3
2016-Jul-20 22:26N 36°11' E 000°06'4 4.6
2016-Jul-20 21:28N 36°08' E 000°03'4 4.4
2016-Jul-20 20:32N 36°04' E 000°00'4 4.3
2016-Jul-20 19:33N 36°00' W 000°02'4 4.1
2016-Jul-20 18:32N 35°57' W 000°04'1 1.3
2016-Jul-20 17:30N 35°56' W 000°03'0 0.1
2016-Jul-20 16:30N 35°56' W 000°02'1 1.0
2016-Jul-20 15:33N 35°56' W 000°04'2 2.2
2016-Jul-20 14:33N 35°56' W 000°06'4 3.5
2016-Jul-20 13:33N 35°57' W 000°11'2 2.2
2016-Jul-20 12:33N 35°56' W 000°13'1 1.4
2016-Jul-20 11:33N 35°57' W 000°12'1 1.1
2016-Jul-20 10:26N 35°58' W 000°11'1 1.0
2016-Jul-20 09:29N 35°58' W 000°10'1 0.8
2016-Jul-20 08:33N 35°59' W 000°09'1 0.6
2016-Jul-20 07:33N 35°59' W 000°09'1 0.6
2016-Jul-20 06:33N 35°60' W 000°08'2 1.7
2016-Jul-20 05:33N 36°01' W 000°07'5 4.7
2016-Jul-20 04:34N 36°05' W 000°03'5 4.7
2016-Jul-20 03:28N 36°09' E 000°00'5 4.4
2016-Jul-20 02:27N 36°13' E 000°03'4 4.6
2016-Jul-20 01:33N 36°15' E 000°07'4 4.5
2016-Jul-20 00:33N 36°18' E 000°11'4 4.4
2016-Jul-19 23:33N 36°20' E 000°16'1 1.5
2016-Jul-19 22:33N 36°19' E 000°17'3 3.0
2016-Jul-19 21:33N 36°17' E 000°14'2 1.6
2016-Jul-19 20:34N 36°19' E 000°14'4 4.4
2016-Jul-19 19:33N 36°21' E 000°19'4 4.2
2016-Jul-19 18:33N 36°23' E 000°23'4 4.1
2016-Jul-19 17:33N 36°25' E 000°27'4 4.1
2016-Jul-19 16:33N 36°27' E 000°32'4 4.2
2016-Jul-19 15:33N 36°30' E 000°36'5 4.3
2016-Jul-19 14:18N 36°32' E 000°42'4 4.3
2016-Jul-19 13:18N 36°35' E 000°46'3 4.1
2016-Jul-19 12:31N 36°37' E 000°50'5 4.3
2016-Jul-19 11:18N 36°39' E 000°55'3 4.0
2016-Jul-19 10:32N 36°41' E 000°59'4 3.8
2016-Jul-19 09:33N 36°42' E 001°03'4 3.9
2016-Jul-19 08:30N 36°43' E 001°08'4 4.0
2016-Jul-19 07:33N 36°44' E 001°12'  
Track history (hours):
 
Tides and Currents Weather Stations Pressure Air Temp Water Temp Dewpoint Dewpoint Depression Visibility Wind Speed Wind Dir Waves Ship Positions

Bachir Chihani

Last reported at 2016-Jul-29 05:30 UTC. Time now 2016-Jul-29 10:11 UTC.
Position N 37°20' E 024°14'.

Length 280 m; draft 11.1 m.

Type: Ship (hazmat cat D). MMSI: 605106010.

Date/timePositionNaut miles runAvg speedWind from/ knotsBaromVisibWave heightAir tempDewpointWater temp
2016-Jul-29 05:30N 37°20' E 024°14'1212.1
2016-Jul-29 04:33N 37°08' E 024°10'1212.4
2016-Jul-29 03:33N 36°57' E 024°06'1212.3
2016-Jul-29 02:34N 36°46' E 023°59'1313.1
2016-Jul-29 01:33N 36°36' E 023°48'1313.3
2016-Jul-29 00:33N 36°26' E 023°36'1312.8
2016-Jul-28 23:33N 36°17' E 023°25'1712.7
2016-Jul-28 22:12N 36°05' E 023°10'37513.1
2016-Jul-27 17:33N 36°22' E 015°26'1313.1
2016-Jul-27 16:33N 36°24' E 015°09'1313.0
2016-Jul-27 15:34N 36°25' E 014°54'1313.1
2016-Jul-27 14:33N 36°27' E 014°37'1313.2
2016-Jul-27 13:33N 36°28' E 014°21'1313.4
2016-Jul-27 12:33N 36°31' E 014°05'1413.9
2016-Jul-27 11:34N 36°33' E 013°48'1413.7
2016-Jul-27 10:33N 36°36' E 013°31'1413.9
2016-Jul-27 09:33N 36°38' E 013°14'1414.1
2016-Jul-27 08:33N 36°41' E 012°56'1413.6
2016-Jul-27 07:33N 36°43' E 012°40'1313.0
2016-Jul-27 06:33N 36°49' E 012°25'31113.0
2016-Jul-26 06:33N 37°15' E 005°57'1414.3
2016-Jul-26 05:33N 37°14' E 005°39'1414.2
2016-Jul-26 04:33N 37°13' E 005°21'1613.9
2016-Jul-26 03:23N 37°10' E 005°01'1214.3
2016-Jul-26 02:33N 37°09' E 004°46'1714.1
2016-Jul-26 01:19N 37°07' E 004°25'1113.7
2016-Jul-26 00:33N 37°06' E 004°12'1313.1
2016-Jul-25 23:33N 37°05' E 003°55'1813.7
2016-Jul-25 22:13N 37°03' E 003°32'1014.4
2016-Jul-25 21:33N 37°02' E 003°20'1414.3
2016-Jul-25 20:33N 37°01' E 003°02'1413.9
2016-Jul-25 19:33N 36°59' E 002°45'1413.8
2016-Jul-25 18:32N 36°55' E 002°28'1313.6
2016-Jul-25 17:33N 36°53' E 002°12'1313.3
2016-Jul-25 16:33N 36°50' E 001°56'1813.0
2016-Jul-25 15:12N 36°47' E 001°34'913.2
2016-Jul-25 14:33N 36°45' E 001°24'1313.0
2016-Jul-25 13:32N 36°43' E 001°07'1312.8
2016-Jul-25 12:33N 36°38' E 000°53'1313.1
2016-Jul-25 11:33N 36°31' E 000°39'1313.0
2016-Jul-25 10:33N 36°24' E 000°25'1313.2
2016-Jul-25 09:33N 36°17' E 000°11'  
2016-Jul-22 20:15N 35°49' W 000°16'0 0.0
2016-Jul-22 18:09N 35°49' W 000°16'1 1.4
2016-Jul-22 17:34N 35°50' W 000°16'3 2.5
2016-Jul-22 16:32N 35°52' W 000°15'9 6.2
2016-Jul-22 15:05N 35°58' W 000°07'710.5
2016-Jul-22 14:23N 36°03' W 000°00'1 1.6
2016-Jul-22 13:33N 36°02' W 000°00'2 1.8
2016-Jul-22 12:32N 36°00' W 000°01'2 1.8
2016-Jul-22 11:28N 35°60' E 000°01'1 1.3
2016-Jul-22 10:33N 36°01' W 000°00'14 3.4
2016-Jul-22 06:26N 36°14' E 000°06'8 3.9
2016-Jul-22 04:17N 36°18' E 000°15'7 4.0
2016-Jul-22 02:26N 36°22' E 000°23'1 1.4
2016-Jul-22 01:33N 36°22' E 000°21'5 5.0
2016-Jul-22 00:33N 36°20' E 000°16'5 4.9
2016-Jul-21 23:33N 36°17' E 000°11'5 4.8
2016-Jul-21 22:34N 36°14' E 000°07'5 4.7
2016-Jul-21 21:33N 36°10' E 000°03'5 4.5
2016-Jul-21 20:30N 36°06' E 000°01'4 4.2
2016-Jul-21 19:33N 36°02' W 000°02'4 3.7
2016-Jul-21 18:33N 35°59' W 000°04'0 0.4
2016-Jul-21 17:33N 35°59' W 000°05'0 0.1
2016-Jul-21 16:33N 35°59' W 000°05'0 0.3
2016-Jul-21 15:33N 35°59' W 000°04'0 0.5
2016-Jul-21 14:33N 35°59' W 000°04'1 0.5
2016-Jul-21 13:33N 35°59' W 000°04'5 5.2
2016-Jul-21 12:33N 36°05' W 000°04'5 5.2
2016-Jul-21 11:33N 36°10' W 000°03'6 5.6
2016-Jul-21 10:33N 36°13' E 000°02'6 5.5
2016-Jul-21 09:28N 36°16' E 000°09'5 5.3
2016-Jul-21 08:28N 36°19' E 000°14'4 4.8
2016-Jul-21 07:33N 36°21' E 000°19'5 4.7
2016-Jul-21 06:33N 36°23' E 000°24'9 4.3
2016-Jul-21 04:28N 36°28' E 000°34'2 2.5
2016-Jul-21 03:33N 36°27' E 000°31'5 5.4
2016-Jul-21 02:34N 36°24' E 000°26'5 5.4
2016-Jul-21 01:33N 36°21' E 000°20'5 5.1
2016-Jul-21 00:33N 36°18' E 000°15'5 5.2
2016-Jul-20 23:33N 36°16' E 000°09'5 4.3
2016-Jul-20 22:26N 36°11' E 000°06'4 4.6
2016-Jul-20 21:28N 36°08' E 000°03'4 4.4
2016-Jul-20 20:32N 36°04' E 000°00'4 4.3
2016-Jul-20 19:33N 36°00' W 000°02'4 4.1
2016-Jul-20 18:32N 35°57' W 000°04'1 1.3
2016-Jul-20 17:30N 35°56' W 000°03'0 0.1
2016-Jul-20 16:30N 35°56' W 000°02'1 1.0
2016-Jul-20 15:33N 35°56' W 000°04'2 2.2
2016-Jul-20 14:33N 35°56' W 000°06'4 3.5
2016-Jul-20 13:33N 35°57' W 000°11'2 2.2
2016-Jul-20 12:33N 35°56' W 000°13'1 1.4
2016-Jul-20 11:33N 35°57' W 000°12'1 1.1
2016-Jul-20 10:26N 35°58' W 000°11'1 1.0
2016-Jul-20 09:29N 35°58' W 000°10'1 0.8
2016-Jul-20 08:33N 35°59' W 000°09'1 0.6
2016-Jul-20 07:33N 35°59' W 000°09'1 0.6
2016-Jul-20 06:33N 35°60' W 000°08'2 1.7
2016-Jul-20 05:33N 36°01' W 000°07'5 4.7
2016-Jul-20 04:34N 36°05' W 000°03'5 4.7
2016-Jul-20 03:28N 36°09' E 000°00'5 4.4
2016-Jul-20 02:27N 36°13' E 000°03'4 4.6
2016-Jul-20 01:33N 36°15' E 000°07'4 4.5
2016-Jul-20 00:33N 36°18' E 000°11'4 4.4
2016-Jul-19 23:33N 36°20' E 000°16'1 1.5
2016-Jul-19 22:33N 36°19' E 000°17'3 3.0
2016-Jul-19 21:33N 36°17' E 000°14'2 1.6
2016-Jul-19 20:34N 36°19' E 000°14'4 4.4
2016-Jul-19 19:33N 36°21' E 000°19'4 4.2
2016-Jul-19 18:33N 36°23' E 000°23'4 4.1
2016-Jul-19 17:33N 36°25' E 000°27'4 4.1
2016-Jul-19 16:33N 36°27' E 000°32'4 4.2
2016-Jul-19 15:33N 36°30' E 000°36'5 4.3
2016-Jul-19 14:18N 36°32' E 000°42'4 4.3
2016-Jul-19 13:18N 36°35' E 000°46'3 4.1
2016-Jul-19 12:31N 36°37' E 000°50'5 4.3
2016-Jul-19 11:18N 36°39' E 000°55'3 4.0
2016-Jul-19 10:32N 36°41' E 000°59'4 3.8
2016-Jul-19 09:33N 36°42' E 001°03'4 3.9
2016-Jul-19 08:30N 36°43' E 001°08'4 4.0
2016-Jul-19 07:33N 36°44' E 001°12'  

Dump ship's entire track history